Time;durP1;ratioP1;P1;durP2;ratioP2;P2;SDS_P1;SDS_P2;PMS_P1;PMS_P2;Temp;Humidity;BMP_temperature;BMP_pressure;BME280_temperature;BME280_humidity;BME280_pressure;Samples;Min_cycle;Max_cycle;Signal;HPM_P1;HPM_P2
2021/05/06 00:32:17;;;;;;;3.00;1.80;;;9.80;99.90;;;9.42;95.80;100707.28;4050480;29;20032;-69
2021/05/06 00:34:18;;;;;;;2.55;1.85;;;9.80;99.90;;;9.41;95.96;100705.63;4040108;29;20085;-69
2021/05/06 00:36:19;;;;;;;4.13;2.30;;;9.80;99.90;;;9.41;96.43;100695.09;4052201;29;20111;-69
2021/05/06 00:38:24;;;;;;;5.47;2.00;;;9.90;99.90;;;9.28;96.06;100686.75;4041256;29;20041;-69
2021/05/06 00:43:14;;;;;;;1.65;1.55;;;9.80;99.90;;;9.19;96.84;100688.47;4011857;29;20229;-69
2021/05/06 01:01:37;;;;;;;3.72;2.55;;;9.80;99.90;;;9.19;93.60;100611.31;4041105;29;20069;-69
2021/05/06 01:03:52;;;;;;;6.68;2.22;;;9.80;99.90;;;9.19;95.37;100627.94;4040190;29;20033;-68
2021/05/06 01:06:02;;;;;;;3.42;1.77;;;9.70;99.90;;;9.27;94.58;100625.38;4040909;29;20374;-69
2021/05/06 01:08:25;;;;;;;7.72;1.92;;;9.60;99.90;;;9.22;94.16;100613.66;4041006;29;20086;-68
2021/05/06 01:12:28;;;;;;;6.32;2.13;;;9.70;99.90;;;9.35;94.03;100607.00;4041135;29;20047;-69
2021/05/06 01:14:28;;;;;;;2.85;2.00;;;9.70;99.90;;;9.09;93.87;100602.66;4039721;29;20033;-69
2021/05/06 01:16:30;;;;;;;6.00;2.03;;;9.70;99.90;;;9.16;95.00;100604.56;4041029;29;20033;-68
2021/05/06 01:18:31;;;;;;;3.42;2.00;;;9.60;99.90;;;9.23;93.54;100594.22;4040851;29;20112;-68
2021/05/06 01:20:32;;;;;;;3.63;2.25;;;9.60;99.90;;;9.15;94.59;100591.53;4040751;29;20033;-68
2021/05/06 01:22:33;;;;;;;3.67;1.80;;;9.60;99.90;;;9.07;95.15;100586.19;4040996;29;20585;-69
2021/05/06 01:24:35;;;;;;;4.93;2.25;;;9.60;99.90;;;9.09;95.86;100560.56;4039801;29;20509;-68
2021/05/06 01:27:13;;;;;;;4.57;2.10;;;9.60;99.90;;;9.31;95.23;100568.00;4042121;29;20433;-68
2021/05/06 01:29:09;;;;;;;3.78;2.17;;;9.70;99.90;;;9.24;95.32;100554.59;4046647;29;20490;-68
2021/05/06 01:31:21;;;;;;;3.42;1.80;;;9.70;99.90;;;9.27;95.71;100562.19;4057722;29;20052;-69
2021/05/06 01:35:45;;;;;;;8.05;2.10;;;9.70;99.90;;;9.18;96.12;100555.22;4044119;29;20036;-69
2021/05/06 01:40:28;;;;;;;3.55;2.10;;;9.70;99.90;;;9.08;95.84;100524.72;4042609;29;20561;-68
2021/05/06 01:42:48;;;;;;;3.80;2.35;;;9.50;99.90;;;8.98;96.97;100516.06;4043747;29;20033;-68
2021/05/06 02:00:07;;;;;;;4.68;2.33;;;9.80;99.90;;;9.21;95.76;100481.22;4042192;29;20032;-69
2021/05/06 02:02:08;;;;;;;4.80;2.25;;;9.70;99.90;;;9.19;95.71;100487.63;4041988;29;20044;-69
2021/05/06 02:04:09;;;;;;;3.85;2.15;;;9.70;99.90;;;9.32;96.60;100493.28;4043114;29;20029;-69
2021/05/06 02:06:10;;;;;;;6.35;2.22;;;9.70;99.90;;;9.32;95.74;100493.28;4043085;29;20520;-68
2021/05/06 02:08:12;;;;;;;3.45;1.90;;;9.80;99.90;;;9.07;96.20;100478.31;4043198;29;20112;-69
2021/05/06 02:10:20;;;;;;;3.28;2.00;;;9.60;99.90;;;9.11;97.06;100482.31;4042086;29;20041;-69
2021/05/06 02:12:21;;;;;;;6.55;2.63;;;9.70;99.90;;;9.26;97.10;100473.69;4046854;29;20032;-69
2021/05/06 02:14:22;;;;;;;3.67;1.80;;;9.60;99.90;;;9.24;96.92;100472.19;4058673;29;20035;-69
2021/05/06 02:16:35;;;;;;;4.60;2.10;;;9.70;99.90;;;9.32;96.94;100469.59;4058605;29;20039;-68
2021/05/06 02:18:37;;;;;;;4.00;1.85;;;9.80;99.90;;;9.22;97.17;100468.91;4058492;29;20037;-69
2021/05/06 02:20:40;;;;;;;6.03;2.17;;;9.80;99.90;;;9.21;96.78;100449.66;4058440;29;20029;-69
2021/05/06 02:22:41;;;;;;;4.55;1.92;;;9.70;99.90;;;9.19;96.26;100448.97;4057265;29;20061;-69
2021/05/06 02:24:43;;;;;;;4.40;2.10;;;9.70;99.90;;;9.16;97.92;100441.41;4057225;29;20052;-69
2021/05/06 02:26:44;;;;;;;5.38;2.38;;;9.70;99.90;;;9.10;97.80;100431.47;4057093;29;20080;-69
2021/05/06 02:28:46;;;;;;;7.30;3.15;;;9.60;99.90;;;9.04;97.46;100436.53;4041591;29;20525;-69
2021/05/06 02:30:46;;;;;;;3.95;2.30;;;9.60;99.90;;;9.13;98.33;100428.53;4050177;29;20455;-69
2021/05/06 02:32:47;;;;;;;6.22;2.20;;;9.60;99.90;;;9.17;97.19;100421.19;4047303;29;20033;-69
2021/05/06 02:34:48;;;;;;;4.97;2.22;;;9.70;99.90;;;9.38;97.92;100429.50;4041787;29;20032;-69
2021/05/06 02:36:49;;;;;;;4.57;2.28;;;9.70;99.90;;;9.34;97.77;100425.56;4053174;29;20029;-69
2021/05/06 02:38:50;;;;;;;3.88;2.08;;;9.70;99.90;;;9.27;98.34;100421.88;4041534;29;20445;-68
2021/05/06 02:40:51;;;;;;;4.85;2.03;;;9.70;99.90;;;9.27;98.45;100416.63;4041716;29;20065;-69
2021/05/06 02:42:52;;;;;;;2.67;1.73;;;9.80;99.90;;;9.29;97.86;100390.94;4042533;29;20069;-68
2021/05/06 02:44:53;;;;;;;6.78;2.63;;;9.70;99.90;;;9.47;96.45;100394.34;4041625;29;20465;-69
2021/05/06 02:46:55;;;;;;;2.30;2.10;;;9.80;99.90;;;9.41;96.27;100389.69;4042710;29;20036;-69
2021/05/06 02:48:56;;;;;;;4.30;2.40;;;10.00;99.90;;;9.49;96.77;100381.03;4042572;29;20112;-68
2021/05/06 02:51:00;;;;;;;4.43;2.40;;;9.90;99.90;;;9.40;96.71;100388.06;4041050;29;20501;-69
2021/05/06 02:53:09;;;;;;;5.65;2.92;;;9.90;99.90;;;9.34;97.73;100384.25;4041488;29;20111;-69
2021/05/06 03:04:00;;;;;;;5.50;2.20;;;9.90;99.90;;;9.55;97.99;100362.81;4041320;29;20043;-69
2021/05/06 03:06:01;;;;;;;3.50;2.17;;;9.90;99.90;;;9.45;98.51;100365.56;4042307;29;20025;-68
2021/05/06 03:08:24;;;;;;;3.72;1.98;;;9.90;99.90;;;9.34;99.46;100365.00;4041278;29;20036;-69
2021/05/06 03:20:56;;;;;;;4.05;2.10;;;9.80;99.90;;;9.25;97.91;100305.41;4041167;29;20037;-69
2021/05/06 03:23:55;;;;;;;3.47;1.70;;;9.70;99.90;;;9.04;99.94;100316.34;4042321;29;20029;-69
2021/05/06 03:25:56;;;;;;;2.95;2.10;;;9.60;99.90;;;9.29;100.00;100322.53;4040976;29;20402;-69
2021/05/06 03:32:29;;;;;;;2.25;1.90;;;9.80;99.90;;;9.41;100.00;100290.50;4050544;29;20039;-69
2021/05/06 03:41:43;;;;;;;7.43;2.83;;;9.90;99.90;;;9.49;99.93;100292.34;4040863;29;20040;-68
2021/05/06 04:18:21;;;;;;;2.25;1.85;;;10.20;99.90;;;9.59;99.12;100171.91;4041555;29;20079;-69
2021/05/06 04:27:25;;;;;;;2.15;1.88;;;10.20;99.90;;;9.64;100.00;100177.50;4041399;29;20123;-69
2021/05/06 04:36:11;;;;;;;2.72;1.42;;;10.20;99.90;;;9.60;100.00;100147.22;4050566;29;20083;-69
2021/05/06 04:38:15;;;;;;;2.97;1.70;;;10.20;99.90;;;9.80;99.49;100166.97;4041803;29;20116;-69
2021/05/06 04:40:37;;;;;;;1.85;1.52;;;10.20;99.90;;;9.79;99.09;100156.59;4041205;29;20033;-69
2021/05/06 04:45:16;;;;;;;3.17;1.75;;;10.30;99.90;;;9.82;100.00;100153.66;4041323;29;20029;-69
2021/05/06 05:05:09;;;;;;;1.40;1.30;;;10.30;99.90;;;9.91;100.00;100174.56;4043251;29;20105;-69
2021/05/06 05:13:39;;;;;;;1.85;1.40;;;10.30;99.90;;;9.82;100.00;100154.47;4044066;29;20505;-69
2021/05/06 05:18:08;;;;;;;2.53;1.80;;;10.40;99.90;;;9.97;100.00;100155.41;4043880;29;20036;-69
2021/05/06 05:21:15;;;;;;;2.03;1.83;;;10.40;99.90;;;9.91;100.00;100147.38;4043745;29;20537;-70
2021/05/06 05:25:05;;;;;;;2.00;1.45;;;10.30;99.90;;;9.72;100.00;100124.00;4043578;29;20061;-70
2021/05/06 05:27:06;;;;;;;2.13;1.58;;;10.40;99.90;;;9.95;100.00;100125.78;4043757;29;20093;-70
2021/05/06 05:29:07;;;;;;;1.65;1.35;;;10.40;99.90;;;10.11;100.00;100122.31;4048302;29;20033;-70
2021/05/06 05:31:08;;;;;;;1.77;1.50;;;10.40;99.90;;;9.97;100.00;100126.44;4058778;29;20421;-70
2021/05/06 05:33:14;;;;;;;1.65;1.55;;;10.50;99.90;;;10.00;100.00;100120.03;4044900;29;20047;-70
2021/05/06 05:35:26;;;;;;;2.78;2.58;;;10.50;99.90;;;9.95;100.00;100117.06;4049070;29;20032;-71
2021/05/06 05:37:33;;;;;;;3.47;2.67;;;10.40;99.90;;;9.86;100.00;100100.44;4053243;29;20154;-71
2021/05/06 05:40:02;;;;;;;2.03;1.83;;;10.50;99.90;;;9.94;100.00;100128.59;4042298;29;20580;-70
2021/05/06 05:44:13;;;;;;;1.60;1.50;;;10.50;99.90;;;10.12;100.00;100117.88;4043448;29;20026;-71
2021/05/06 05:46:55;;;;;;;1.80;1.67;;;10.50;99.90;;;10.09;100.00;100112.94;4043319;29;20092;-71
2021/05/06 05:55:50;;;;;;;1.98;1.70;;;10.60;99.90;;;10.05;100.00;100099.28;4058667;29;20088;-70
2021/05/06 05:57:52;;;;;;;1.98;1.80;;;10.50;99.90;;;10.10;100.00;100096.94;4058624;29;20032;-70
2021/05/06 05:59:53;;;;;;;2.25;2.00;;;10.50;99.90;;;10.22;100.00;100086.88;4058695;29;20067;-70
2021/05/06 06:01:54;;;;;;;1.80;1.70;;;10.60;99.90;;;10.25;100.00;100091.81;4058817;29;20045;-70
2021/05/06 06:03:55;;;;;;;2.88;2.35;;;10.70;99.90;;;10.22;100.00;100074.53;4058414;29;20037;-70
2021/05/06 06:05:56;;;;;;;3.03;1.80;;;10.70;99.90;;;10.26;100.00;100082.94;4058599;29;20420;-70
2021/05/06 06:07:57;;;;;;;1.92;1.83;;;10.70;99.90;;;10.23;100.00;100078.00;4058443;29;20029;-70
2021/05/06 06:09:58;;;;;;;1.92;1.83;;;10.80;99.90;;;10.42;99.66;100077.63;4058669;29;20036;-70
2021/05/06 06:11:59;;;;;;;2.08;1.90;;;10.90;99.90;;;10.32;99.71;100076.97;4056759;29;20124;-70
2021/05/06 06:14:06;;;;;;;2.35;2.00;;;10.80;99.90;;;10.30;100.00;100095.63;4055737;29;20035;-69
2021/05/06 06:16:12;;;;;;;2.28;1.90;;;10.80;99.90;;;10.36;100.00;100084.38;4056780;29;20037;-71
2021/05/06 06:18:27;;;;;;;1.90;1.80;;;10.90;99.90;;;10.35;100.00;100098.56;4043572;29;20036;-71
2021/05/06 06:20:31;;;;;;;2.50;2.15;;;10.90;99.90;;;10.36;100.00;100088.84;4046220;29;20033;-70
2021/05/06 06:22:32;;;;;;;;;;;11.00;99.90;;;10.40;100.00;100084.84;4058313;29;20508;-70
2021/05/06 06:24:33;;;;;;;2.70;2.47;;;11.00;99.90;;;10.31;100.00;100075.31;4058293;29;19916;-69
2021/05/06 06:26:34;;;;;;;2.55;2.35;;;10.90;99.90;;;10.41;100.00;100081.22;4056201;29;20029;-70
2021/05/06 06:28:43;;;;;;;2.75;2.53;;;11.00;99.90;;;10.41;100.00;100076.78;4052598;29;20033;-70
2021/05/06 06:30:44;;;;;;;2.85;2.42;;;11.00;99.90;;;10.28;100.00;100057.22;4041921;29;20128;-70
2021/05/06 06:32:45;;;;;;;2.65;2.38;;;11.00;99.90;;;10.36;100.00;100076.47;4045519;29;20029;-70
2021/05/06 06:34:47;;;;;;;3.00;2.70;;;11.00;99.90;;;10.32;100.00;100066.44;4041103;29;20420;-71
2021/05/06 06:36:49;;;;;;;2.60;2.40;;;10.90;99.90;;;10.21;100.00;100064.19;4057071;29;20025;-71
2021/05/06 06:38:50;;;;;;;3.00;2.53;;;10.90;99.90;;;10.29;100.00;100053.59;4056752;29;20029;-70
2021/05/06 06:40:51;;;;;;;3.10;2.58;;;10.90;99.90;;;10.33;100.00;100062.81;4056692;29;20497;-70
2021/05/06 06:42:52;;;;;;;3.10;2.80;;;11.00;99.90;;;10.49;100.00;100065.38;4055882;29;20033;-71
2021/05/06 06:44:53;;;;;;;2.72;2.50;;;11.10;99.90;;;10.40;100.00;100026.84;4053546;29;20065;-70
2021/05/06 06:47:01;;;;;;;2.60;2.40;;;11.10;99.90;;;10.49;100.00;100041.63;4049952;29;20025;-71
2021/05/06 06:49:02;;;;;;;3.63;2.42;;;11.10;99.90;;;10.57;100.00;100048.69;4041609;29;20028;-71
2021/05/06 06:51:04;;;;;;;3.03;2.70;;;11.20;99.90;;;10.56;100.00;100045.25;4071720;29;20032;-71
2021/05/06 06:53:05;;;;;;;3.17;2.30;;;11.20;99.90;;;10.73;100.00;100053.88;4056153;29;20040;-70
2021/05/06 06:55:06;;;;;;;3.22;2.40;;;11.40;99.90;;;10.74;100.00;100056.34;4049178;29;20029;-71
2021/05/06 06:57:08;;;;;;;5.18;2.65;;;11.30;99.90;;;10.72;100.00;100042.50;4041912;29;20041;-71
2021/05/06 06:59:09;;;;;;;4.70;2.83;;;11.40;99.90;;;10.89;100.00;100027.41;4041971;29;20040;-70
2021/05/06 07:01:10;;;;;;;3.72;2.28;;;11.50;99.90;;;11.02;100.00;100031.09;4040920;29;20037;-69
2021/05/06 07:03:15;;;;;;;5.07;2.67;;;11.50;99.90;;;11.09;100.00;100033.84;4041643;29;20119;-70
2021/05/06 07:05:16;;;;;;;3.97;2.08;;;11.70;99.90;;;11.15;100.00;100025.22;4040580;29;20025;-71
2021/05/06 07:07:18;;;;;;;5.32;2.47;;;11.80;99.90;;;11.27;100.00;100028.25;4041637;29;20402;-69
2021/05/06 07:09:19;;;;;;;4.05;2.47;;;11.90;99.90;;;11.34;100.00;100024.75;4040662;29;20025;-69
2021/05/06 07:11:20;;;;;;;5.85;2.38;;;12.00;99.90;;;11.33;100.00;100030.19;4048480;29;20388;-69
2021/05/06 07:13:22;;;;;;;7.50;2.72;;;12.00;99.90;;;11.46;100.00;100030.41;4056921;29;20028;-70
2021/05/06 07:15:23;;;;;;;6.03;2.60;;;12.10;99.90;;;11.53;100.00;100029.50;4057182;29;20088;-71
2021/05/06 07:17:24;;;;;;;9.02;2.47;;;12.20;99.90;;;11.70;100.00;100030.22;4056204;29;20028;-70
2021/05/06 07:19:24;;;;;;;7.13;2.85;;;12.30;99.90;;;11.68;100.00;100021.59;4056793;29;20044;-69
2021/05/06 07:21:27;;;;;;;9.05;2.80;;;12.40;99.90;;;11.77;100.00;100035.59;4045857;29;20065;-69
2021/05/06 07:23:29;;;;;;;8.65;2.50;;;12.50;99.90;;;11.82;100.00;100023.50;4038957;29;20033;-69
2021/05/06 07:25:30;;;;;;;7.57;3.05;;;12.60;99.90;;;11.99;100.00;100034.69;4040793;29;20520;-69
2021/05/06 07:27:30;;;;;;;6.50;2.97;;;12.70;99.90;;;12.09;100.00;100044.00;4040162;29;20025;-70
2021/05/06 07:29:32;;;;;;;7.32;2.88;;;12.70;99.90;;;12.06;100.00;100032.97;4049298;29;20033;-72
2021/05/06 07:31:33;;;;;;;9.23;3.33;;;12.80;99.90;;;12.11;100.00;100034.06;4055178;29;20520;-70
2021/05/06 07:33:34;;;;;;;11.48;3.13;;;12.90;99.90;;;12.17;100.00;100040.44;4041219;29;20029;-70
2021/05/06 07:35:35;;;;;;;9.25;3.53;;;13.00;99.90;;;12.23;100.00;100038.88;4041849;29;20069;-71
2021/05/06 07:37:36;;;;;;;12.70;3.25;;;13.10;99.90;;;12.36;100.00;100039.06;4060563;29;20028;-71
2021/05/06 07:39:37;;;;;;;10.35;2.58;;;13.20;99.90;;;12.37;100.00;100024.81;4056606;29;20497;-71
2021/05/06 07:41:38;;;;;;;10.02;3.05;;;13.30;99.90;;;12.38;100.00;100029.94;4055706;29;20035;-71
2021/05/06 07:43:42;;;;;;;16.67;3.85;;;13.30;99.90;;;12.43;100.00;100050.53;4056378;29;20041;-71
2021/05/06 07:45:43;;;;;;;9.15;2.97;;;13.40;99.90;;;12.35;100.00;100043.53;4056852;29;20032;-70
2021/05/06 07:47:44;;;;;;;14.43;4.68;;;13.40;99.90;;;12.48;100.00;100037.59;4056252;29;20033;-71
2021/05/06 07:49:49;;;;;;;7.47;2.80;;;13.50;99.90;;;12.53;100.00;100035.19;4056036;29;20109;-71
2021/05/06 07:51:49;;;;;;;9.95;2.90;;;13.50;99.90;;;12.79;100.00;100043.41;4055556;29;20041;-71
2021/05/06 07:53:52;;;;;;;7.18;3.08;;;13.80;99.90;;;12.80;100.00;100031.84;4057144;29;20409;-70
2021/05/06 07:55:55;;;;;;;11.13;3.70;;;13.90;99.90;;;12.91;100.00;100027.88;4060272;29;20031;-68
2021/05/06 07:57:56;;;;;;;9.35;3.22;;;14.00;99.90;;;12.82;100.00;100037.75;4039951;29;20442;-69
2021/05/06 07:59:57;;;;;;;8.35;3.33;;;14.10;99.90;;;12.84;100.00;100027.00;4039948;29;20036;-70
2021/05/06 08:01:59;;;;;;;12.93;4.45;;;14.20;99.90;;;12.94;100.00;100051.31;4039988;29;20037;-69
2021/05/06 08:04:02;;;;;;;12.13;3.05;;;14.20;99.90;;;12.84;100.00;100048.16;4054817;29;20096;-69
2021/05/06 08:06:03;;;;;;;11.70;3.35;;;14.10;99.90;;;12.80;100.00;100053.00;4041086;29;20035;-69
2021/05/06 08:08:05;;;;;;;13.32;3.25;;;14.10;99.90;;;12.59;100.00;100037.94;4046737;29;20064;-69
2021/05/06 08:10:07;;;;;;;16.70;3.95;;;13.90;99.90;;;12.68;100.00;100028.88;4054552;29;20028;-70
2021/05/06 08:12:09;;;;;;;10.02;3.80;;;14.00;99.90;;;12.91;100.00;100035.81;4058505;29;20032;-69
2021/05/06 08:14:10;;;;;;;17.00;4.35;;;14.00;99.90;;;12.88;100.00;100044.94;4060199;29;20057;-69
2021/05/06 08:16:10;;;;;;;10.10;3.30;;;14.10;99.90;;;12.96;100.00;100042.16;4055621;29;20040;-71
2021/05/06 08:18:11;;;;;;;12.65;3.40;;;14.20;99.90;;;12.89;100.00;100049.25;4044295;29;20033;-69
2021/05/06 08:20:14;;;;;;;13.52;3.47;;;14.20;99.90;;;13.03;100.00;100047.53;4039558;29;20045;-69
2021/05/06 08:22:15;;;;;;;12.85;3.40;;;14.20;99.90;;;12.98;100.00;100042.00;4039817;29;20434;-69
2021/05/06 08:24:16;;;;;;;11.60;3.78;;;14.20;99.90;;;12.87;100.00;100061.03;4054613;29;20112;-69
2021/05/06 08:26:17;;;;;;;14.07;3.83;;;14.20;99.90;;;12.74;100.00;100070.47;4061037;29;20392;-69
2021/05/06 08:28:18;;;;;;;21.15;5.53;;;14.10;99.90;;;12.94;100.00;100075.13;4042624;29;20036;-69
2021/05/06 08:30:20;;;;;;;17.52;5.55;;;14.10;99.90;;;12.95;100.00;100060.91;4052613;29;20045;-69
2021/05/06 08:32:21;;;;;;;19.63;4.28;;;14.20;99.90;;;13.08;100.00;100067.19;4054234;29;20033;-68
2021/05/06 08:34:22;;;;;;;16.35;4.57;;;14.30;99.90;;;13.24;100.00;100069.59;4039003;29;20097;-69
2021/05/06 08:36:24;;;;;;;17.30;4.50;;;14.50;99.90;;;13.40;100.00;100063.22;4051879;29;20043;-69
2021/05/06 08:38:25;;;;;;;18.83;4.68;;;14.60;99.90;;;13.50;100.00;100071.66;4039360;29;20029;-69
2021/05/06 08:40:25;;;;;;;15.23;4.35;;;14.70;99.90;;;13.55;100.00;100077.22;4040834;29;20048;-69
2021/05/06 08:42:27;;;;;;;14.95;4.25;;;14.80;99.90;;;13.40;100.00;100075.63;4040601;29;20049;-69
2021/05/06 08:44:33;;;;;;;18.40;5.22;;;14.90;99.90;;;13.60;99.96;100089.88;4039150;29;20041;-70
2021/05/06 08:46:37;;;;;;;12.77;3.83;;;14.90;99.90;;;13.46;98.94;100078.34;4040769;29;20032;-70
2021/05/06 08:48:38;;;;;;;12.98;4.03;;;14.90;99.90;;;13.50;97.91;100092.03;4039242;29;20037;-70
2021/05/06 08:50:41;;;;;;;19.00;4.10;;;14.90;99.90;;;13.50;97.85;100092.84;4039173;29;20040;-71
2021/05/06 08:52:43;;;;;;;20.13;4.85;;;14.90;99.90;;;13.56;98.04;100088.63;4039176;29;20039;-70
2021/05/06 08:54:46;;;;;;;18.58;4.32;;;15.00;99.90;;;13.64;95.73;100101.75;4023728;29;20041;-70
2021/05/06 08:56:47;;;;;;;17.05;4.00;;;15.10;99.90;;;13.63;95.23;100097.44;4040033;29;20033;-70
2021/05/06 08:58:48;;;;;;;17.75;4.38;;;15.00;99.90;;;13.56;93.63;100097.38;4047619;29;20168;-70
2021/05/06 09:00:50;;;;;;;18.02;3.80;;;15.00;99.90;;;13.70;94.86;100095.69;4040861;29;20037;-71
2021/05/06 09:02:50;;;;;;;18.35;4.80;;;15.10;99.90;;;13.81;95.27;100088.00;4040380;29;20033;-71
2021/05/06 09:04:51;;;;;;;17.60;6.00;;;15.20;99.90;;;13.70;94.66;100085.91;4040478;29;20036;-71
2021/05/06 09:06:54;;;;;;;17.58;5.32;;;15.20;99.90;;;13.83;95.29;100109.00;4040147;29;20029;-71
2021/05/06 09:09:03;;;;;;;17.73;5.25;;;15.30;99.90;;;13.54;92.20;100061.50;4040451;29;20065;-72
2021/05/06 09:11:04;;;;;;;17.38;4.38;;;15.10;99.90;;;13.56;93.61;100093.94;4045961;29;20033;-72
2021/05/06 09:13:29;;;;;;;16.95;4.22;;;15.00;99.90;;;13.80;94.01;100091.66;4056187;29;20081;-72
2021/05/06 09:15:30;;;;;;;18.73;5.35;;;15.10;99.90;;;13.79;93.82;100105.94;4053200;29;20112;-72
2021/05/06 09:17:33;;;;;;;16.67;4.80;;;15.10;99.90;;;13.75;92.85;100101.22;4040657;29;20040;-72
2021/05/06 09:19:34;;;;;;;19.13;5.35;;;15.20;99.90;;;13.69;93.28;100108.09;4040271;29;20022;-72
2021/05/06 09:21:39;;;;;;;15.32;4.57;;;15.10;99.90;;;13.67;93.96;100106.66;4039207;29;20037;-73
2021/05/06 09:23:43;;;;;;;15.07;4.95;;;15.00;99.90;;;13.58;94.70;100103.31;4043903;29;20028;-72
2021/05/06 09:25:43;;;;;;;15.27;4.05;;;14.90;99.90;;;13.40;93.93;100118.03;4056339;29;20079;-72
2021/05/06 09:27:44;;;;;;;15.23;4.05;;;14.70;99.90;;;13.30;91.90;100119.16;4055947;29;20029;-73
2021/05/06 09:29:47;;;;;;;15.18;4.15;;;14.60;99.90;;;13.13;93.66;100117.75;4055821;29;20048;-73
2021/05/06 09:31:48;;;;;;;16.52;3.97;;;14.40;99.90;;;13.35;92.94;100120.44;4063426;29;20032;-73
2021/05/06 09:33:50;;;;;;;19.90;4.95;;;14.40;99.90;;;13.25;93.62;100116.25;4040831;29;20040;-73
2021/05/06 09:35:51;;;;;;;14.65;4.13;;;14.40;99.90;;;13.27;93.61;100118.72;4044972;29;20024;-72
2021/05/06 09:37:52;;;;;;;16.15;4.65;;;14.40;99.90;;;13.36;94.00;100122.06;4045928;29;20501;-72
2021/05/06 09:40:06;;;;;;;19.88;5.22;;;14.50;99.90;;;13.51;93.91;100128.94;4039621;29;20057;-72
2021/05/06 09:42:11;;;;;;;15.70;4.25;;;14.50;99.90;;;13.55;93.60;100132.03;4039213;29;20033;-73
2021/05/06 09:44:20;;;;;;;20.83;5.38;;;14.60;99.90;;;13.52;93.80;100132.41;4039368;29;20028;-73
2021/05/06 09:46:42;;;;;;;13.25;4.32;;;14.60;99.90;;;13.50;94.16;100137.09;4040005;29;20033;-72
2021/05/06 09:48:43;;;;;;;23.17;5.97;;;14.60;99.90;;;13.29;92.10;100133.41;4042224;29;20067;-74
2021/05/06 09:50:57;;;;;;;18.05;5.55;;;14.60;99.90;;;13.59;93.01;100134.09;4043238;29;20434;-73
2021/05/06 09:52:58;;;;;;;18.60;5.63;;;14.70;99.90;;;13.72;92.71;100146.66;4042313;29;20116;-72
2021/05/06 09:54:59;;;;;;;18.33;5.07;;;14.80;99.90;;;13.53;92.47;100148.09;4042986;29;20044;-72
2021/05/06 09:57:06;;;;;;;23.27;6.00;;;14.80;99.90;;;13.90;94.02;100154.97;4043001;29;20061;-72
2021/05/06 09:59:08;;;;;;;13.88;4.40;;;15.10;99.90;;;14.15;92.57;100156.19;4043249;29;20417;-73
2021/05/06 10:01:11;;;;;;;18.13;4.82;;;15.40;99.90;;;14.07;91.58;100152.84;4043340;29;20029;-72
2021/05/06 10:03:18;;;;;;;27.13;6.55;;;15.40;99.90;;;14.31;92.70;100147.09;4042052;29;20521;-72
2021/05/06 10:05:19;;;;;;;17.25;5.13;;;15.80;99.90;;;14.48;91.85;100145.00;4041700;29;20025;-72
2021/05/06 10:07:25;;;;;;;20.98;5.65;;;15.90;99.90;;;14.53;91.27;100164.63;4042676;29;20449;-72
2021/05/06 10:09:25;;;;;;;22.77;5.68;;;16.00;99.90;;;14.66;85.96;100158.59;4041804;29;20068;-73
2021/05/06 10:11:26;;;;;;;22.15;5.43;;;16.20;99.90;;;15.05;86.42;100184.50;4041709;29;20036;-74
2021/05/06 10:13:27;;;;;;;20.35;6.03;;;16.40;99.90;;;15.04;87.01;100173.06;4041561;29;20083;-73
2021/05/06 10:15:28;;;;;;;20.40;4.63;;;16.50;99.90;;;15.14;83.31;100170.81;4041530;29;20441;-73
2021/05/06 10:17:30;;;;;;;17.98;5.25;;;16.70;99.90;;;15.39;83.49;100174.59;4041695;29;20116;-72
2021/05/06 10:19:31;;;;;;;15.38;4.75;;;16.90;99.90;;;15.46;83.68;100199.34;4049968;29;20037;-71
2021/05/06 10:21:32;;;;;;;15.80;4.15;;;17.10;99.90;;;15.25;78.46;100177.41;4057444;29;20043;-71
2021/05/06 10:23:35;;;;;;;17.63;4.40;;;17.10;99.90;;;15.48;80.20;100196.50;4057814;29;20127;-71
2021/05/06 10:25:36;;;;;;;15.95;4.05;;;17.10;99.90;;;14.82;77.63;100177.66;4056880;29;20060;-70
2021/05/06 10:27:41;;;;;;;18.67;4.95;;;16.80;99.90;;;15.07;79.27;100183.28;4057785;29;20056;-72
2021/05/06 10:29:42;;;;;;;16.20;4.65;;;16.70;99.90;;;15.20;79.75;100193.16;4057500;29;20025;-71
2021/05/06 10:31:45;;;;;;;19.55;4.82;;;16.50;99.90;;;15.01;77.58;100184.06;4054402;29;20043;-72
2021/05/06 10:33:46;;;;;;;16.90;4.30;;;16.40;99.90;;;15.06;77.28;100181.63;4041100;29;20029;-72
2021/05/06 10:35:47;;;;;;;15.32;3.60;;;16.50;99.90;;;15.23;79.09;100198.06;4045474;29;20037;-70
2021/05/06 10:37:59;;;;;;;15.15;3.60;;;16.50;99.90;;;14.91;75.52;100195.06;4043968;29;20165;-70
2021/05/06 10:40:00;;;;;;;16.83;4.07;;;16.40;99.90;;;14.98;72.80;100200.41;4029679;29;20033;-71
2021/05/06 10:42:27;;;;;;;15.10;5.03;;;16.30;99.90;;;14.58;71.76;100196.72;4040567;29;20036;-71
2021/05/06 10:44:36;;;;;;;19.73;5.05;;;15.90;99.90;;;14.79;73.49;100196.63;4055214;29;20493;-70
2021/05/06 10:47:03;;;;;;;19.73;3.50;;;16.00;99.90;;;14.56;71.00;100208.53;4056501;29;20020;-70
2021/05/06 10:49:04;;;;;;;18.98;4.43;;;15.80;99.90;;;14.63;71.60;100206.75;4057488;29;20504;-71
2021/05/06 10:51:48;;;;;;;25.05;4.53;;;15.80;99.90;;;15.06;72.57;100207.38;4057041;29;20049;-72
2021/05/06 10:53:48;;;;;;;17.40;4.63;;;16.00;99.90;;;15.05;75.82;100208.41;4057417;29;20033;-72
2021/05/06 10:55:53;;;;;;;17.38;4.55;;;16.10;99.90;;;14.89;73.21;100188.31;4057140;29;20033;-73
2021/05/06 10:57:54;;;;;;;13.85;4.97;;;16.20;99.90;;;15.06;73.01;100202.06;4040517;29;20033;-71
2021/05/06 10:59:55;;;;;;;21.33;5.13;;;16.20;99.90;;;15.13;72.54;100213.53;4056092;29;20463;-72
2021/05/06 11:01:57;;;;;;;16.92;4.35;;;16.30;99.90;;;15.23;73.38;100214.00;4055897;29;20039;-72
2021/05/06 11:04:04;;;;;;;13.57;3.67;;;16.30;99.90;;;15.16;70.89;100213.97;4057129;29;20028;-71
2021/05/06 11:06:06;;;;;;;23.13;4.55;;;16.40;99.90;;;15.10;68.42;100214.75;4057239;29;20370;-73
2021/05/06 11:08:31;;;;;;;21.35;4.72;;;16.40;99.90;;;15.16;68.30;100205.16;4056989;29;20025;-72
2021/05/06 11:10:45;;;;;;;15.93;4.35;;;16.40;99.90;;;15.12;68.11;100226.00;4056929;29;20421;-71
2021/05/06 11:12:56;;;;;;;;;;;16.40;99.90;;;15.33;67.24;100225.88;4056705;29;20488;-71
2021/05/06 11:15:03;;;;;;;17.20;4.40;;;16.50;99.90;;;15.28;66.37;100233.63;4056894;29;19911;-72
2021/05/06 11:17:19;;;;;;;17.13;3.65;;;16.50;99.90;;;15.28;69.84;100225.66;4056958;29;20065;-71
2021/05/06 11:19:40;;;;;;;14.73;4.57;;;16.50;99.90;;;15.34;67.45;100222.22;4057227;29;20037;-71
2021/05/06 11:21:43;;;;;;;18.30;4.45;;;16.50;99.90;;;15.39;66.69;100230.41;4070953;29;20039;-72
2021/05/06 11:23:52;;;;;;;21.00;4.13;;;16.50;99.90;;;15.28;65.04;100223.00;4056970;29;20832;-72
2021/05/06 11:26:05;;;;;;;21.02;4.80;;;16.60;99.90;;;15.65;68.33;100236.84;4057049;29;20460;-72
2021/05/06 11:28:15;;;;;;;17.08;4.97;;;16.70;99.90;;;15.41;67.10;100248.81;4055802;29;20032;-72
2021/05/06 11:30:36;;;;;;;19.15;4.60;;;16.80;99.90;;;15.66;65.82;100228.66;4056487;29;20464;-72
2021/05/06 11:32:37;;;;;;;15.93;3.88;;;16.90;99.90;;;15.77;66.96;100233.38;4046754;29;20044;-70
2021/05/06 11:34:48;;;;;;;22.63;5.40;;;17.10;99.90;;;15.66;64.33;100241.13;4039847;29;20040;-71
2021/05/06 11:36:49;;;;;;;22.00;4.38;;;17.10;99.90;;;15.59;62.93;100225.16;4041218;29;20480;-70
2021/05/06 11:38:54;;;;;;;20.58;6.47;;;17.00;99.90;;;15.38;61.30;100236.72;4071345;29;20040;-70
2021/05/06 11:40:59;;;;;;;16.67;4.00;;;17.00;99.90;;;15.32;61.31;100244.69;4055337;29;20402;-71
2021/05/06 11:43:00;;;;;;;25.10;5.70;;;16.80;99.90;;;15.52;64.50;100250.09;4055479;29;20040;-71
2021/05/06 11:45:29;;;;;;;18.45;6.32;;;16.80;99.90;;;15.41;62.77;100244.31;4055429;29;20025;-71
2021/05/06 11:47:30;;;;;;;21.13;4.70;;;16.90;99.90;;;15.64;67.56;100245.84;4056857;29;20033;-71
2021/05/06 11:49:31;;;;;;;19.92;5.10;;;16.90;99.90;;;15.94;66.39;100252.47;4054502;29;20028;-71